Quick Links (Output Below):   Max & Min Temps   /   Climate Reports   /   Zone Forecasts
River Forecasts   /   Forestry Forecasts   /   Aviation Forecasts   /   Radars   /   Features

Terminal Aerodrome Forecast (Jonesboro)

Pick a Site:
Arkadelphia | El Dorado | Fayetteville | Fort Smith | Harrison | Highfill | Hot Springs | Jonesboro
Little Rock | Monticello | Mountain Home | Pine Bluff | Texarkana
 Forecast 

KJBR 272330Z 2800/2824 00000KT P6SM SKC
     FM280500 00000KT P6SM BKN120
     FM281300 18009KT P6SM SCT120
     FM281600 20014KT P6SM SKC
     FM282000 20014G22KT P6SM SCT250=


 Latest METARs (Observations) 
How to Decode METARs
02Z KJBR 280153Z AUTO 00000KT 10SM CLR 01/M01 A3046 RMK AO2 SLP317
         T00061011
         
01Z KJBR 280053Z AUTO 00000KT 10SM CLR 01/M01 A3047 RMK AO2 SLP318
         T00111006
         
00Z KJBR 272353Z AUTO 00000KT 10SM CLR 02/00 A3047 RMK AO2 SLP318
         T00220000 10078 20022 58001
         
***** Today's Observations (Above) *****


23Z KJBR 272253Z AUTO 00000KT 10SM CLR 06/M02 A3047 RMK AO2 SLP319
         T00561022
         
22Z KJBR 272153Z AUTO 00000KT 10SM CLR 07/M02 A3047 RMK AO2 SLP319
         T00671017
         
21Z KJBR 272053Z AUTO 00000KT 10SM CLR 07/M02 A3047 RMK AO2 SLP318
         T00721017 56009
         
20Z KJBR 271953Z AUTO 02005KT 10SM BKN034 07/M01 A3047 RMK AO2 SLP319
         T00721011
         
19Z KJBR 271853Z AUTO 00000KT 10SM BKN034 06/M01 A3049 RMK AO2 SLP325
         T00611011
         
18Z KJBR 271753Z AUTO VRB05KT 10SM BKN032 06/M01 A3050 RMK AO2 SLP327
         T00611006 10061 20028 50004
         
17Z KJBR 271653Z AUTO 03008KT 10SM FEW030 06/M01 A3051 RMK AO2 SLP330
         T00561006
         
***** Yesterday's Observations (Above) *****


Back to Main Page
http://www.srh.noaa.gov/lzk/qfcst.php

USA.gov is the U.S. government's official web portal to all federal, state and local government web resources and services.